Etusivu
METAR-TAF:

METAR-TAF

Lentoasemat :

Schoolcraft County Airport

Manistique, Michigan, Yhdysvallat

Leveyspiiri: 45-58-29N, Pituuspiiri: 086-10-19W, korkeus merenpinnasta: 209 m

Tämänhetkinen sää

Tämä raportti tehtiin 17 minuuttia sitten, kello 12.16 UTC
Tuuli 9 kn luoteesta
Lämpötila 4°C
Kosteus 93%
Ilmanpaine 1005 hPa
Näkyvyys: 16.1 km
Pilvistä 800 ft:n korkeudessa

METAR: KISQ 081216Z AUTO 31009KT 10SM OVC008 04/03 A2969 RMK AO2 T00400031

Aika: 08:33 (12:33 UTC)


TAF: puuttuu

Säähavainnot ja -ennusteet yli 4000 lentoasemalta (METAR- ja TAF-raportit).

Käytössä olevat sääasemat on merkitty karttaan keltaisilla ja punaisilla pisteillä.

Aseta hiiri pisteen päälle nähdäksesi sääaseman nimen.

Klikkaa sitten nähdäksesi säähavainnot ja -ennusteet.

Kartan vaihtaminen: klikkaa mustalla rastilla varustettuja vihreitä pisteitä, niin voit zoomata sisään; viivalla varustettua vihreää pistettä, niin voit zoomata ulos tai vihreitä nuolia, niin pääset viereisille kartoille.


METAR-TAF: